sensor_id;sensor_type;location;lat;lon;timestamp;temperature;humidity
21508;DHT22;10915;54.352;9.074;2024-03-23T00:53:30;6.60;99.90
21508;DHT22;10915;54.352;9.074;2024-03-23T00:55:56;6.60;99.90
21508;DHT22;10915;54.352;9.074;2024-03-23T00:58:22;6.60;99.90
21508;DHT22;10915;54.352;9.074;2024-03-23T01:00:47;6.60;99.90
21508;DHT22;10915;54.352;9.074;2024-03-23T01:03:13;6.60;99.90
21508;DHT22;10915;54.352;9.074;2024-03-23T01:05:38;6.60;99.90
21508;DHT22;10915;54.352;9.074;2024-03-23T01:08:04;6.50;99.90
21508;DHT22;10915;54.352;9.074;2024-03-23T01:10:30;6.50;99.90
21508;DHT22;10915;54.352;9.074;2024-03-23T01:12:56;6.50;99.90
21508;DHT22;10915;54.352;9.074;2024-03-23T01:15:21;6.50;99.90
21508;DHT22;10915;54.352;9.074;2024-03-23T01:17:47;6.50;99.90
21508;DHT22;10915;54.352;9.074;2024-03-23T01:20:12;6.50;99.90
21508;DHT22;10915;54.352;9.074;2024-03-23T01:22:38;6.50;99.90
21508;DHT22;10915;54.352;9.074;2024-03-23T01:25:04;6.40;99.90
21508;DHT22;10915;54.352;9.074;2024-03-23T01:27:30;6.40;99.90
21508;DHT22;10915;54.352;9.074;2024-03-23T01:29:55;6.40;99.90
21508;DHT22;10915;54.352;9.074;2024-03-23T01:32:21;6.40;99.90
21508;DHT22;10915;54.352;9.074;2024-03-23T01:34:47;6.40;99.90
21508;DHT22;10915;54.352;9.074;2024-03-23T01:37:12;6.30;99.90
21508;DHT22;10915;54.352;9.074;2024-03-23T01:39:38;6.30;99.90
21508;DHT22;10915;54.352;9.074;2024-03-23T01:42:04;6.30;99.90
21508;DHT22;10915;54.352;9.074;2024-03-23T01:44:29;6.30;99.90
21508;DHT22;10915;54.352;9.074;2024-03-23T01:46:55;6.30;99.90
21508;DHT22;10915;54.352;9.074;2024-03-23T01:49:21;6.30;99.90
21508;DHT22;10915;54.352;9.074;2024-03-23T01:51:46;6.30;99.90
21508;DHT22;10915;54.352;9.074;2024-03-23T01:54:12;6.30;99.90
21508;DHT22;10915;54.352;9.074;2024-03-23T01:56:38;6.30;99.90
21508;DHT22;10915;54.352;9.074;2024-03-23T01:59:07;6.30;99.90
21508;DHT22;10915;54.352;9.074;2024-03-23T02:01:35;6.30;99.90
21508;DHT22;10915;54.352;9.074;2024-03-23T02:04:01;6.30;99.90
21508;DHT22;10915;54.352;9.074;2024-03-23T02:06:27;6.40;99.90
21508;DHT22;10915;54.352;9.074;2024-03-23T02:08:54;6.40;99.90
21508;DHT22;10915;54.352;9.074;2024-03-23T02:11:20;6.50;99.90
21508;DHT22;10915;54.352;9.074;2024-03-23T02:13:45;6.50;99.90
21508;DHT22;10915;54.352;9.074;2024-03-23T02:16:11;6.40;99.90
21508;DHT22;10915;54.352;9.074;2024-03-23T02:18:37;6.40;99.90
21508;DHT22;10915;54.352;9.074;2024-03-23T02:21:03;6.40;99.90
21508;DHT22;10915;54.352;9.074;2024-03-23T02:23:28;6.40;99.90
21508;DHT22;10915;54.352;9.074;2024-03-23T02:25:54;6.40;99.90
21508;DHT22;10915;54.352;9.074;2024-03-23T02:28:21;6.40;99.90
21508;DHT22;10915;54.352;9.074;2024-03-23T02:30:51;6.30;99.90
21508;DHT22;10915;54.352;9.074;2024-03-23T02:33:17;6.30;99.90
21508;DHT22;10915;54.352;9.074;2024-03-23T02:35:46;6.30;99.90
21508;DHT22;10915;54.352;9.074;2024-03-23T02:38:12;6.30;99.90
21508;DHT22;10915;54.352;9.074;2024-03-23T02:40:38;6.30;99.90
21508;DHT22;10915;54.352;9.074;2024-03-23T02:43:04;6.30;99.90
21508;DHT22;10915;54.352;9.074;2024-03-23T02:45:30;6.30;99.90
21508;DHT22;10915;54.352;9.074;2024-03-23T02:47:56;6.30;99.90
21508;DHT22;10915;54.352;9.074;2024-03-23T02:50:22;6.30;99.90
21508;DHT22;10915;54.352;9.074;2024-03-23T02:52:48;6.30;99.90
21508;DHT22;10915;54.352;9.074;2024-03-23T02:55:14;6.30;99.90
21508;DHT22;10915;54.352;9.074;2024-03-23T02:57:40;6.30;99.90
21508;DHT22;10915;54.352;9.074;2024-03-23T03:00:06;6.30;99.90
21508;DHT22;10915;54.352;9.074;2024-03-23T03:02:33;6.30;99.90
21508;DHT22;10915;54.352;9.074;2024-03-23T03:04:58;6.30;99.90
21508;DHT22;10915;54.352;9.074;2024-03-23T03:07:24;6.30;99.90
21508;DHT22;10915;54.352;9.074;2024-03-23T03:09:49;6.30;99.90
21508;DHT22;10915;54.352;9.074;2024-03-23T03:12:15;6.30;99.90
21508;DHT22;10915;54.352;9.074;2024-03-23T03:14:41;6.30;99.90
21508;DHT22;10915;54.352;9.074;2024-03-23T03:17:06;6.30;99.90
21508;DHT22;10915;54.352;9.074;2024-03-23T03:19:32;6.30;99.90
21508;DHT22;10915;54.352;9.074;2024-03-23T03:21:57;6.40;99.90
21508;DHT22;10915;54.352;9.074;2024-03-23T03:24:23;6.30;99.90
21508;DHT22;10915;54.352;9.074;2024-03-23T03:26:49;6.30;99.90
21508;DHT22;10915;54.352;9.074;2024-03-23T03:29:15;6.30;99.90
21508;DHT22;10915;54.352;9.074;2024-03-23T03:31:41;6.30;99.90
21508;DHT22;10915;54.352;9.074;2024-03-23T03:34:07;6.30;99.90
21508;DHT22;10915;54.352;9.074;2024-03-23T03:36:32;6.30;99.90
21508;DHT22;10915;54.352;9.074;2024-03-23T03:38:58;6.30;99.90
21508;DHT22;10915;54.352;9.074;2024-03-23T03:41:24;6.30;99.90
21508;DHT22;10915;54.352;9.074;2024-03-23T03:43:49;6.30;99.90
21508;DHT22;10915;54.352;9.074;2024-03-23T03:46:15;6.30;99.90
21508;DHT22;10915;54.352;9.074;2024-03-23T03:48:40;6.30;99.90
21508;DHT22;10915;54.352;9.074;2024-03-23T03:51:06;6.30;99.90
21508;DHT22;10915;54.352;9.074;2024-03-23T03:53:32;6.30;99.90
21508;DHT22;10915;54.352;9.074;2024-03-23T03:56:01;6.30;99.90
21508;DHT22;10915;54.352;9.074;2024-03-23T03:58:27;6.40;99.90
21508;DHT22;10915;54.352;9.074;2024-03-23T04:00:53;6.30;99.90
21508;DHT22;10915;54.352;9.074;2024-03-23T04:03:18;6.30;99.90
21508;DHT22;10915;54.352;9.074;2024-03-23T04:05:53;6.30;99.90
21508;DHT22;10915;54.352;9.074;2024-03-23T04:08:19;6.30;99.90
21508;DHT22;10915;54.352;9.074;2024-03-23T04:10:45;6.30;99.90
21508;DHT22;10915;54.352;9.074;2024-03-23T04:13:11;6.30;99.90
21508;DHT22;10915;54.352;9.074;2024-03-23T04:15:37;6.30;99.90
21508;DHT22;10915;54.352;9.074;2024-03-23T04:18:02;6.30;99.90
21508;DHT22;10915;54.352;9.074;2024-03-23T04:20:28;6.30;99.90
21508;DHT22;10915;54.352;9.074;2024-03-23T04:22:54;6.30;99.90
21508;DHT22;10915;54.352;9.074;2024-03-23T04:25:19;6.30;99.90
21508;DHT22;10915;54.352;9.074;2024-03-23T04:27:45;6.30;99.90
21508;DHT22;10915;54.352;9.074;2024-03-23T04:30:11;6.30;99.90
21508;DHT22;10915;54.352;9.074;2024-03-23T04:32:37;6.30;99.90
21508;DHT22;10915;54.352;9.074;2024-03-23T04:35:04;6.30;99.90
21508;DHT22;10915;54.352;9.074;2024-03-23T04:37:35;6.30;99.90
21508;DHT22;10915;54.352;9.074;2024-03-23T04:40:01;6.30;99.90
21508;DHT22;10915;54.352;9.074;2024-03-23T04:42:27;6.30;99.90
21508;DHT22;10915;54.352;9.074;2024-03-23T04:44:53;6.30;99.90
21508;DHT22;10915;54.352;9.074;2024-03-23T04:47:19;6.30;99.90
21508;DHT22;10915;54.352;9.074;2024-03-23T04:49:44;6.30;99.90
21508;DHT22;10915;54.352;9.074;2024-03-23T04:52:10;6.30;99.90
21508;DHT22;10915;54.352;9.074;2024-03-23T04:54:35;6.30;99.90
21508;DHT22;10915;54.352;9.074;2024-03-23T04:57:01;6.20;99.90
21508;DHT22;10915;54.352;9.074;2024-03-23T04:59:26;6.20;99.90
21508;DHT22;10915;54.352;9.074;2024-03-23T05:01:52;6.20;99.90
21508;DHT22;10915;54.352;9.074;2024-03-23T05:04:18;6.20;99.90
21508;DHT22;10915;54.352;9.074;2024-03-23T05:06:43;6.20;99.90
21508;DHT22;10915;54.352;9.074;2024-03-23T05:09:09;6.20;99.90
21508;DHT22;10915;54.352;9.074;2024-03-23T05:11:40;6.20;99.90
21508;DHT22;10915;54.352;9.074;2024-03-23T05:14:07;6.20;99.90
21508;DHT22;10915;54.352;9.074;2024-03-23T05:16:33;6.20;99.90
21508;DHT22;10915;54.352;9.074;2024-03-23T05:18:58;6.20;99.90
21508;DHT22;10915;54.352;9.074;2024-03-23T05:21:30;6.10;99.90
21508;DHT22;10915;54.352;9.074;2024-03-23T05:23:56;6.20;99.90
21508;DHT22;10915;54.352;9.074;2024-03-23T05:26:22;6.20;99.90
21508;DHT22;10915;54.352;9.074;2024-03-23T05:28:48;6.10;99.90
21508;DHT22;10915;54.352;9.074;2024-03-23T05:31:25;6.20;99.90
21508;DHT22;10915;54.352;9.074;2024-03-23T05:33:51;6.20;99.90
21508;DHT22;10915;54.352;9.074;2024-03-23T05:36:20;6.10;99.90
21508;DHT22;10915;54.352;9.074;2024-03-23T05:38:47;6.10;99.90
21508;DHT22;10915;54.352;9.074;2024-03-23T05:41:12;6.10;99.90
21508;DHT22;10915;54.352;9.074;2024-03-23T05:43:38;6.10;99.90
21508;DHT22;10915;54.352;9.074;2024-03-23T05:46:04;6.10;99.90
21508;DHT22;10915;54.352;9.074;2024-03-23T05:48:31;6.10;99.90
21508;DHT22;10915;54.352;9.074;2024-03-23T05:50:57;6.10;99.90
21508;DHT22;10915;54.352;9.074;2024-03-23T05:53:24;6.20;99.90
21508;DHT22;10915;54.352;9.074;2024-03-23T05:55:50;6.20;99.90
21508;DHT22;10915;54.352;9.074;2024-03-23T05:58:17;6.30;99.90
21508;DHT22;10915;54.352;9.074;2024-03-23T06:00:43;6.40;99.90
21508;DHT22;10915;54.352;9.074;2024-03-23T06:03:09;6.40;99.90
21508;DHT22;10915;54.352;9.074;2024-03-23T06:05:36;6.50;99.90
21508;DHT22;10915;54.352;9.074;2024-03-23T06:08:02;6.70;99.90
21508;DHT22;10915;54.352;9.074;2024-03-23T06:10:28;6.80;99.90
21508;DHT22;10915;54.352;9.074;2024-03-23T06:12:53;6.90;99.90
21508;DHT22;10915;54.352;9.074;2024-03-23T06:15:19;6.90;99.90
21508;DHT22;10915;54.352;9.074;2024-03-23T06:17:45;7.00;99.90
21508;DHT22;10915;54.352;9.074;2024-03-23T06:20:12;7.10;99.90
21508;DHT22;10915;54.352;9.074;2024-03-23T06:22:38;7.10;99.90
21508;DHT22;10915;54.352;9.074;2024-03-23T06:25:04;7.20;99.90
21508;DHT22;10915;54.352;9.074;2024-03-23T06:27:29;7.30;99.90
21508;DHT22;10915;54.352;9.074;2024-03-23T06:29:55;7.40;99.90
21508;DHT22;10915;54.352;9.074;2024-03-23T06:32:21;7.50;99.90
21508;DHT22;10915;54.352;9.074;2024-03-23T06:34:46;7.60;99.90
21508;DHT22;10915;54.352;9.074;2024-03-23T06:37:12;7.70;99.90
21508;DHT22;10915;54.352;9.074;2024-03-23T06:39:38;7.80;99.90
21508;DHT22;10915;54.352;9.074;2024-03-23T06:42:04;8.00;99.90
21508;DHT22;10915;54.352;9.074;2024-03-23T06:44:30;8.00;99.90
21508;DHT22;10915;54.352;9.074;2024-03-23T06:46:56;8.10;99.90
21508;DHT22;10915;54.352;9.074;2024-03-23T06:49:25;8.20;99.90
21508;DHT22;10915;54.352;9.074;2024-03-23T06:51:51;8.20;99.90
21508;DHT22;10915;54.352;9.074;2024-03-23T06:54:17;8.20;99.90
21508;DHT22;10915;54.352;9.074;2024-03-23T06:56:44;8.20;99.90
21508;DHT22;10915;54.352;9.074;2024-03-23T06:59:09;8.20;99.90
21508;DHT22;10915;54.352;9.074;2024-03-23T07:01:35;8.20;99.90
21508;DHT22;10915;54.352;9.074;2024-03-23T07:04:01;8.20;99.90
21508;DHT22;10915;54.352;9.074;2024-03-23T07:06:26;8.10;99.90
21508;DHT22;10915;54.352;9.074;2024-03-23T07:08:52;8.10;99.90
21508;DHT22;10915;54.352;9.074;2024-03-23T07:11:22;8.00;99.90
21508;DHT22;10915;54.352;9.074;2024-03-23T07:13:52;7.60;99.90
21508;DHT22;10915;54.352;9.074;2024-03-23T07:16:17;7.40;99.90
21508;DHT22;10915;54.352;9.074;2024-03-23T07:18:44;7.00;99.90
21508;DHT22;10915;54.352;9.074;2024-03-23T07:21:09;6.80;99.90
21508;DHT22;10915;54.352;9.074;2024-03-23T07:23:35;6.70;99.90
21508;DHT22;10915;54.352;9.074;2024-03-23T07:26:05;6.50;99.90
21508;DHT22;10915;54.352;9.074;2024-03-23T07:28:34;6.40;99.90
21508;DHT22;10915;54.352;9.074;2024-03-23T07:31:06;6.30;99.90
21508;DHT22;10915;54.352;9.074;2024-03-23T07:33:32;6.30;99.90
21508;DHT22;10915;54.352;9.074;2024-03-23T07:35:58;6.40;99.90
21508;DHT22;10915;54.352;9.074;2024-03-23T07:38:28;6.40;99.90
21508;DHT22;10915;54.352;9.074;2024-03-23T07:41:10;6.50;99.90
21508;DHT22;10915;54.352;9.074;2024-03-23T07:43:39;6.70;99.90
21508;DHT22;10915;54.352;9.074;2024-03-23T07:46:06;6.90;99.90
21508;DHT22;10915;54.352;9.074;2024-03-23T07:48:32;7.00;99.90
21508;DHT22;10915;54.352;9.074;2024-03-23T07:53:35;7.30;99.90
21508;DHT22;10915;54.352;9.074;2024-03-23T07:56:06;7.40;99.90
21508;DHT22;10915;54.352;9.074;2024-03-23T07:58:33;7.40;99.90
21508;DHT22;10915;54.352;9.074;2024-03-23T08:01:12;7.40;99.90
21508;DHT22;10915;54.352;9.074;2024-03-23T08:03:41;7.30;99.90
21508;DHT22;10915;54.352;9.074;2024-03-23T08:06:15;7.60;99.90
21508;DHT22;10915;54.352;9.074;2024-03-23T08:08:44;8.30;99.90
21508;DHT22;10915;54.352;9.074;2024-03-23T08:11:10;9.10;99.90
21508;DHT22;10915;54.352;9.074;2024-03-23T08:13:39;9.90;99.90
21508;DHT22;10915;54.352;9.074;2024-03-23T08:16:05;10.60;99.90
21508;DHT22;10915;54.352;9.074;2024-03-23T08:18:31;11.20;99.90
21508;DHT22;10915;54.352;9.074;2024-03-23T08:21:02;11.60;99.90
21508;DHT22;10915;54.352;9.074;2024-03-23T08:23:29;11.80;99.90
21508;DHT22;10915;54.352;9.074;2024-03-23T08:25:58;12.00;99.90
21508;DHT22;10915;54.352;9.074;2024-03-23T08:28:25;12.00;99.90
21508;DHT22;10915;54.352;9.074;2024-03-23T08:30:52;11.70;99.90
21508;DHT22;10915;54.352;9.074;2024-03-23T08:33:17;11.50;99.90
21508;DHT22;10915;54.352;9.074;2024-03-23T08:35:43;11.40;99.90
21508;DHT22;10915;54.352;9.074;2024-03-23T08:38:17;11.40;99.90
21508;DHT22;10915;54.352;9.074;2024-03-23T08:40:43;11.80;99.90
21508;DHT22;10915;54.352;9.074;2024-03-23T08:43:09;11.80;99.90
21508;DHT22;10915;54.352;9.074;2024-03-23T08:45:34;11.50;99.90
21508;DHT22;10915;54.352;9.074;2024-03-23T08:48:00;11.10;99.90
21508;DHT22;10915;54.352;9.074;2024-03-23T08:50:25;11.20;99.90
21508;DHT22;10915;54.352;9.074;2024-03-23T08:52:51;11.60;99.90
21508;DHT22;10915;54.352;9.074;2024-03-23T08:55:17;11.70;99.90
21508;DHT22;10915;54.352;9.074;2024-03-23T08:57:42;11.50;99.90
21508;DHT22;10915;54.352;9.074;2024-03-23T09:00:08;11.20;99.90
21508;DHT22;10915;54.352;9.074;2024-03-23T09:02:36;10.90;99.90
21508;DHT22;10915;54.352;9.074;2024-03-23T09:05:02;10.60;99.90
21508;DHT22;10915;54.352;9.074;2024-03-23T09:07:30;10.70;99.90
21508;DHT22;10915;54.352;9.074;2024-03-23T09:09:56;10.90;99.90
21508;DHT22;10915;54.352;9.074;2024-03-23T09:12:22;11.10;99.90
21508;DHT22;10915;54.352;9.074;2024-03-23T09:14:47;11.40;99.90
21508;DHT22;10915;54.352;9.074;2024-03-23T09:17:13;11.60;99.90
21508;DHT22;10915;54.352;9.074;2024-03-23T09:19:38;11.70;99.90
21508;DHT22;10915;54.352;9.074;2024-03-23T09:22:05;12.10;99.90
21508;DHT22;10915;54.352;9.074;2024-03-23T09:24:30;12.60;99.90
21508;DHT22;10915;54.352;9.074;2024-03-23T09:26:57;12.90;99.90
21508;DHT22;10915;54.352;9.074;2024-03-23T09:29:23;13.20;99.90
21508;DHT22;10915;54.352;9.074;2024-03-23T09:31:48;13.40;99.90
21508;DHT22;10915;54.352;9.074;2024-03-23T09:34:14;13.50;99.90
21508;DHT22;10915;54.352;9.074;2024-03-23T09:36:40;14.00;99.90
21508;DHT22;10915;54.352;9.074;2024-03-23T09:39:07;14.30;99.90
21508;DHT22;10915;54.352;9.074;2024-03-23T09:41:35;14.70;99.90
21508;DHT22;10915;54.352;9.074;2024-03-23T09:44:00;14.90;99.90
21508;DHT22;10915;54.352;9.074;2024-03-23T09:46:26;15.00;99.90
21508;DHT22;10915;54.352;9.074;2024-03-23T09:48:55;15.00;99.90
21508;DHT22;10915;54.352;9.074;2024-03-23T09:51:21;14.90;99.90
21508;DHT22;10915;54.352;9.074;2024-03-23T09:53:47;14.50;99.90
21508;DHT22;10915;54.352;9.074;2024-03-23T09:56:13;13.90;99.90
21508;DHT22;10915;54.352;9.074;2024-03-23T09:58:39;14.10;99.90
21508;DHT22;10915;54.352;9.074;2024-03-23T10:01:05;14.20;99.90
21508;DHT22;10915;54.352;9.074;2024-03-23T10:03:31;14.30;99.90
21508;DHT22;10915;54.352;9.074;2024-03-23T10:06:03;14.50;99.90
21508;DHT22;10915;54.352;9.074;2024-03-23T10:08:30;14.60;99.90
21508;DHT22;10915;54.352;9.074;2024-03-23T10:10:56;14.40;99.90
21508;DHT22;10915;54.352;9.074;2024-03-23T10:13:26;14.10;99.90
21508;DHT22;10915;54.352;9.074;2024-03-23T10:15:57;13.50;99.90
21508;DHT22;10915;54.352;9.074;2024-03-23T10:18:23;12.60;99.90
21508;DHT22;10915;54.352;9.074;2024-03-23T10:23:36;11.50;99.90
21508;DHT22;10915;54.352;9.074;2024-03-23T10:26:23;11.40;99.90
21508;DHT22;10915;54.352;9.074;2024-03-23T10:28:55;11.20;99.90
21508;DHT22;10915;54.352;9.074;2024-03-23T10:31:23;10.80;99.90
21508;DHT22;10915;54.352;9.074;2024-03-23T10:33:49;10.40;99.90
21508;DHT22;10915;54.352;9.074;2024-03-23T10:36:15;10.00;99.90
21508;DHT22;10915;54.352;9.074;2024-03-23T10:38:42;9.80;99.90
21508;DHT22;10915;54.352;9.074;2024-03-23T10:41:11;9.60;99.90
21508;DHT22;10915;54.352;9.074;2024-03-23T10:43:38;9.50;99.90
21508;DHT22;10915;54.352;9.074;2024-03-23T10:46:04;9.70;99.90
21508;DHT22;10915;54.352;9.074;2024-03-23T10:48:30;10.20;99.90
21508;DHT22;10915;54.352;9.074;2024-03-23T10:50:55;10.60;99.90
21508;DHT22;10915;54.352;9.074;2024-03-23T10:53:26;11.00;99.90
21508;DHT22;10915;54.352;9.074;2024-03-23T10:55:53;11.50;99.90
21508;DHT22;10915;54.352;9.074;2024-03-23T10:58:27;12.00;99.90
21508;DHT22;10915;54.352;9.074;2024-03-23T11:00:54;12.40;99.90
21508;DHT22;10915;54.352;9.074;2024-03-23T11:03:35;12.40;99.90
21508;DHT22;10915;54.352;9.074;2024-03-23T11:06:07;12.20;99.90
21508;DHT22;10915;54.352;9.074;2024-03-23T11:08:36;11.70;99.90
21508;DHT22;10915;54.352;9.074;2024-03-23T11:11:18;11.40;99.90
21508;DHT22;10915;54.352;9.074;2024-03-23T11:13:52;10.90;99.90
21508;DHT22;10915;54.352;9.074;2024-03-23T11:16:27;10.50;99.90
21508;DHT22;10915;54.352;9.074;2024-03-23T11:19:35;10.30;99.90
21508;DHT22;10915;54.352;9.074;2024-03-23T11:22:02;10.20;99.90
21508;DHT22;10915;54.352;9.074;2024-03-23T11:24:28;10.50;99.90
21508;DHT22;10915;54.352;9.074;2024-03-23T11:26:54;10.80;99.90
21508;DHT22;10915;54.352;9.074;2024-03-23T11:29:20;11.10;99.90
21508;DHT22;10915;54.352;9.074;2024-03-23T11:31:50;11.30;99.90
21508;DHT22;10915;54.352;9.074;2024-03-23T11:34:16;11.40;99.90
21508;DHT22;10915;54.352;9.074;2024-03-23T11:36:46;11.70;99.90
21508;DHT22;10915;54.352;9.074;2024-03-23T11:39:15;11.70;99.90
21508;DHT22;10915;54.352;9.074;2024-03-23T11:41:52;11.80;99.90
21508;DHT22;10915;54.352;9.074;2024-03-23T11:44:19;11.70;99.90
21508;DHT22;10915;54.352;9.074;2024-03-23T11:46:46;11.80;99.90
21508;DHT22;10915;54.352;9.074;2024-03-23T11:49:24;11.80;99.90
21508;DHT22;10915;54.352;9.074;2024-03-23T11:51:51;11.80;99.90
21508;DHT22;10915;54.352;9.074;2024-03-23T11:54:19;11.80;99.90
21508;DHT22;10915;54.352;9.074;2024-03-23T11:56:59;11.90;99.90
21508;DHT22;10915;54.352;9.074;2024-03-23T11:59:35;12.00;99.90
21508;DHT22;10915;54.352;9.074;2024-03-23T12:04:31;12.10;99.90
21508;DHT22;10915;54.352;9.074;2024-03-23T12:09:46;12.10;99.90
21508;DHT22;10915;54.352;9.074;2024-03-23T12:12:16;12.10;99.90
21508;DHT22;10915;54.352;9.074;2024-03-23T12:14:43;11.90;99.90
21508;DHT22;10915;54.352;9.074;2024-03-23T12:17:13;11.80;99.90
21508;DHT22;10915;54.352;9.074;2024-03-23T12:19:39;12.00;99.90
21508;DHT22;10915;54.352;9.074;2024-03-23T12:22:07;12.10;99.90
21508;DHT22;10915;54.352;9.074;2024-03-23T12:24:34;12.00;99.90
21508;DHT22;10915;54.352;9.074;2024-03-23T12:27:03;11.60;99.90
21508;DHT22;10915;54.352;9.074;2024-03-23T12:29:32;11.20;99.90
21508;DHT22;10915;54.352;9.074;2024-03-23T12:32:01;11.00;99.90
21508;DHT22;10915;54.352;9.074;2024-03-23T12:34:28;11.00;99.90
21508;DHT22;10915;54.352;9.074;2024-03-23T12:36:54;11.20;99.90
21508;DHT22;10915;54.352;9.074;2024-03-23T12:39:20;11.40;99.90
21508;DHT22;10915;54.352;9.074;2024-03-23T12:41:49;11.60;99.90
21508;DHT22;10915;54.352;9.074;2024-03-23T12:44:15;11.70;99.90
21508;DHT22;10915;54.352;9.074;2024-03-23T12:46:41;11.80;99.90
21508;DHT22;10915;54.352;9.074;2024-03-23T12:49:07;11.90;99.90
21508;DHT22;10915;54.352;9.074;2024-03-23T12:51:34;12.00;99.90
21508;DHT22;10915;54.352;9.074;2024-03-23T12:53:59;11.70;99.90
21508;DHT22;10915;54.352;9.074;2024-03-23T12:56:25;11.60;99.90
21508;DHT22;10915;54.352;9.074;2024-03-23T12:58:51;11.40;99.90
21508;DHT22;10915;54.352;9.074;2024-03-23T13:01:18;11.20;99.90
21508;DHT22;10915;54.352;9.074;2024-03-23T13:03:46;11.00;99.90
21508;DHT22;10915;54.352;9.074;2024-03-23T13:06:12;10.90;99.90
21508;DHT22;10915;54.352;9.074;2024-03-23T13:08:38;10.90;99.90
21508;DHT22;10915;54.352;9.074;2024-03-23T13:11:06;11.10;99.90
21508;DHT22;10915;54.352;9.074;2024-03-23T13:13:34;11.30;99.90
21508;DHT22;10915;54.352;9.074;2024-03-23T13:16:00;11.50;99.90
21508;DHT22;10915;54.352;9.074;2024-03-23T13:18:25;11.70;99.90
21508;DHT22;10915;54.352;9.074;2024-03-23T13:20:51;11.70;99.90
21508;DHT22;10915;54.352;9.074;2024-03-23T13:23:17;11.70;99.90
21508;DHT22;10915;54.352;9.074;2024-03-23T13:25:52;11.60;99.90
21508;DHT22;10915;54.352;9.074;2024-03-23T13:28:19;11.40;99.90
21508;DHT22;10915;54.352;9.074;2024-03-23T13:33:16;11.20;99.90
21508;DHT22;10915;54.352;9.074;2024-03-23T13:35:49;11.00;99.90
21508;DHT22;10915;54.352;9.074;2024-03-23T13:38:15;10.80;99.90
21508;DHT22;10915;54.352;9.074;2024-03-23T13:40:55;10.60;99.90
21508;DHT22;10915;54.352;9.074;2024-03-23T13:43:22;10.50;99.90
21508;DHT22;10915;54.352;9.074;2024-03-23T13:45:49;10.40;99.90
21508;DHT22;10915;54.352;9.074;2024-03-23T13:48:20;10.50;99.90
21508;DHT22;10915;54.352;9.074;2024-03-23T13:50:45;10.40;99.90
21508;DHT22;10915;54.352;9.074;2024-03-23T13:53:14;10.30;99.90
21508;DHT22;10915;54.352;9.074;2024-03-23T13:55:46;10.30;99.90
21508;DHT22;10915;54.352;9.074;2024-03-23T13:58:14;10.30;99.90
21508;DHT22;10915;54.352;9.074;2024-03-23T14:00:40;10.30;99.90
21508;DHT22;10915;54.352;9.074;2024-03-23T14:03:05;10.30;99.90
21508;DHT22;10915;54.352;9.074;2024-03-23T14:05:31;10.20;99.90
21508;DHT22;10915;54.352;9.074;2024-03-23T14:07:56;10.20;99.90
21508;DHT22;10915;54.352;9.074;2024-03-23T14:10:22;10.20;99.90
21508;DHT22;10915;54.352;9.074;2024-03-23T14:12:48;10.20;99.90
21508;DHT22;10915;54.352;9.074;2024-03-23T14:15:13;10.00;99.90
21508;DHT22;10915;54.352;9.074;2024-03-23T14:17:39;10.10;99.90
21508;DHT22;10915;54.352;9.074;2024-03-23T14:20:05;10.20;99.90
21508;DHT22;10915;54.352;9.074;2024-03-23T14:22:31;10.30;99.90
21508;DHT22;10915;54.352;9.074;2024-03-23T14:24:57;10.30;99.90
21508;DHT22;10915;54.352;9.074;2024-03-23T14:27:24;10.20;99.90
21508;DHT22;10915;54.352;9.074;2024-03-23T14:29:49;10.10;99.90
21508;DHT22;10915;54.352;9.074;2024-03-23T14:32:15;10.10;99.90
21508;DHT22;10915;54.352;9.074;2024-03-23T14:34:41;10.10;99.90
21508;DHT22;10915;54.352;9.074;2024-03-23T14:37:07;10.10;99.90
21508;DHT22;10915;54.352;9.074;2024-03-23T14:39:33;10.10;99.90
21508;DHT22;10915;54.352;9.074;2024-03-23T14:42:04;10.10;99.90
21508;DHT22;10915;54.352;9.074;2024-03-23T14:44:31;10.00;99.90
21508;DHT22;10915;54.352;9.074;2024-03-23T14:46:57;9.90;99.90
21508;DHT22;10915;54.352;9.074;2024-03-23T14:49:23;9.90;99.90
21508;DHT22;10915;54.352;9.074;2024-03-23T14:51:49;9.80;99.90
21508;DHT22;10915;54.352;9.074;2024-03-23T14:54:15;9.80;99.90
21508;DHT22;10915;54.352;9.074;2024-03-23T14:56:41;9.90;99.90
21508;DHT22;10915;54.352;9.074;2024-03-23T14:59:06;9.90;99.90
21508;DHT22;10915;54.352;9.074;2024-03-23T15:01:33;9.90;99.90
21508;DHT22;10915;54.352;9.074;2024-03-23T15:03:59;9.90;99.90
21508;DHT22;10915;54.352;9.074;2024-03-23T15:06:25;9.90;99.90
21508;DHT22;10915;54.352;9.074;2024-03-23T15:08:50;9.90;99.90
21508;DHT22;10915;54.352;9.074;2024-03-23T15:11:16;9.80;99.90
21508;DHT22;10915;54.352;9.074;2024-03-23T15:13:44;9.80;99.90
21508;DHT22;10915;54.352;9.074;2024-03-23T15:16:10;9.80;99.90
21508;DHT22;10915;54.352;9.074;2024-03-23T15:18:39;9.90;99.90
21508;DHT22;10915;54.352;9.074;2024-03-23T15:21:07;10.00;99.90
21508;DHT22;10915;54.352;9.074;2024-03-23T15:23:35;10.00;99.90
21508;DHT22;10915;54.352;9.074;2024-03-23T15:26:02;10.00;99.90
21508;DHT22;10915;54.352;9.074;2024-03-23T15:28:29;10.00;99.90
21508;DHT22;10915;54.352;9.074;2024-03-23T15:31:08;10.00;99.90
21508;DHT22;10915;54.352;9.074;2024-03-23T15:33:37;9.90;99.90
21508;DHT22;10915;54.352;9.074;2024-03-23T15:36:03;9.70;99.90
21508;DHT22;10915;54.352;9.074;2024-03-23T15:38:28;9.60;99.90
21508;DHT22;10915;54.352;9.074;2024-03-23T15:40:57;9.50;99.90
21508;DHT22;10915;54.352;9.074;2024-03-23T15:43:22;9.50;99.90
21508;DHT22;10915;54.352;9.074;2024-03-23T15:46:00;9.40;99.90
21508;DHT22;10915;54.352;9.074;2024-03-23T15:48:27;9.30;99.90
21508;DHT22;10915;54.352;9.074;2024-03-23T15:50:57;9.20;99.90
21508;DHT22;10915;54.352;9.074;2024-03-23T15:53:24;9.10;99.90
21508;DHT22;10915;54.352;9.074;2024-03-23T15:55:54;9.20;99.90
21508;DHT22;10915;54.352;9.074;2024-03-23T15:58:20;9.20;99.90
21508;DHT22;10915;54.352;9.074;2024-03-23T16:00:59;9.30;99.90
21508;DHT22;10915;54.352;9.074;2024-03-23T16:03:25;9.20;99.90
21508;DHT22;10915;54.352;9.074;2024-03-23T16:05:58;9.20;99.90
21508;DHT22;10915;54.352;9.074;2024-03-23T16:08:25;9.20;99.90
21508;DHT22;10915;54.352;9.074;2024-03-23T16:10:51;9.10;99.90
21508;DHT22;10915;54.352;9.074;2024-03-23T16:13:17;9.10;99.90
21508;DHT22;10915;54.352;9.074;2024-03-23T16:15:54;9.00;99.90
21508;DHT22;10915;54.352;9.074;2024-03-23T16:18:20;9.00;99.90
21508;DHT22;10915;54.352;9.074;2024-03-23T16:20:53;8.90;99.90
21508;DHT22;10915;54.352;9.074;2024-03-23T16:23:18;8.90;99.90
21508;DHT22;10915;54.352;9.074;2024-03-23T16:25:51;8.80;99.90
21508;DHT22;10915;54.352;9.074;2024-03-23T16:28:36;8.80;99.90
21508;DHT22;10915;54.352;9.074;2024-03-23T16:31:05;8.70;99.90
21508;DHT22;10915;54.352;9.074;2024-03-23T16:33:34;8.60;99.90
21508;DHT22;10915;54.352;9.074;2024-03-23T16:36:08;8.50;99.90
21508;DHT22;10915;54.352;9.074;2024-03-23T16:38:38;8.40;99.90
21508;DHT22;10915;54.352;9.074;2024-03-23T16:41:08;8.40;99.90
21508;DHT22;10915;54.352;9.074;2024-03-23T16:43:35;8.30;99.90
21508;DHT22;10915;54.352;9.074;2024-03-23T16:46:13;8.20;99.90